createdAt,value
2022-11-27T00:01:28.873Z,17.50
2022-11-27T00:03:57.749Z,12.77
2022-11-27T00:06:30.111Z,13.55
2022-11-27T00:08:58.583Z,14.82
2022-11-27T00:11:29.312Z,13.35
2022-11-27T00:13:57.451Z,13.18
2022-11-27T00:16:28.727Z,14.20
2022-11-27T00:18:57.275Z,12.35
2022-11-27T00:21:28.263Z,9.98
2022-11-27T00:23:58.306Z,14.57
2022-11-27T00:26:27.492Z,13.95
2022-11-27T00:28:56.761Z,13.07
2022-11-27T00:31:29.546Z,11.43
2022-11-27T00:34:01.090Z,15.07
2022-11-27T00:36:30.426Z,12.75
2022-11-27T00:38:58.516Z,11.85
2022-11-27T00:41:28.412Z,11.73
2022-11-27T00:43:57.107Z,11.60
2022-11-27T00:46:32.193Z,12.15
2022-11-27T00:49:02.486Z,13.98
2022-11-27T00:54:01.826Z,12.45
2022-11-27T00:56:32.524Z,12.90
2022-11-27T00:59:03.613Z,13.68
2022-11-27T01:01:35.660Z,13.27
2022-11-27T01:04:06.420Z,13.40
2022-11-27T01:06:34.768Z,15.18
2022-11-27T01:09:03.218Z,15.98
2022-11-27T01:11:35.601Z,15.15
2022-11-27T01:14:06.750Z,17.50
2022-11-27T01:16:42.580Z,17.52
2022-11-27T01:19:15.190Z,16.77
2022-11-27T01:21:43.619Z,16.77
2022-11-27T01:24:13.650Z,17.38
2022-11-27T01:26:42.357Z,17.77
2022-11-27T01:29:10.540Z,17.55
2022-11-27T01:31:41.665Z,18.08
2022-11-27T01:34:15.663Z,19.20
2022-11-27T01:36:43.965Z,17.38
2022-11-27T01:39:16.862Z,17.60
2022-11-27T01:41:45.986Z,18.35
2022-11-27T01:45:01.648Z,18.70
2022-11-27T01:47:48.275Z,17.67
2022-11-27T01:50:20.571Z,17.60
2022-11-27T01:52:52.506Z,19.30
2022-11-27T01:55:26.747Z,17.90
2022-11-27T01:57:59.333Z,16.67
2022-11-27T02:00:27.742Z,16.08
2022-11-27T02:02:59.521Z,17.60
2022-11-27T02:05:29.956Z,17.48
2022-11-27T02:08:00.757Z,17.23
2022-11-27T02:10:38.676Z,17.27
2022-11-27T02:13:13.990Z,17.58
2022-11-27T02:15:47.907Z,18.42
2022-11-27T02:18:25.119Z,16.58
2022-11-27T02:21:02.865Z,17.88
2022-11-27T02:23:57.800Z,17.40
2022-11-27T02:27:13.083Z,18.13
2022-11-27T02:29:47.397Z,20.80
2022-11-27T02:32:25.646Z,16.75
2022-11-27T02:35:04.206Z,17.25
2022-11-27T02:37:37.818Z,21.23
2022-11-27T02:40:11.993Z,18.85
2022-11-27T02:42:44.469Z,27.60
2022-11-27T02:45:17.338Z,27.63
2022-11-27T02:47:47.728Z,22.38
2022-11-27T02:50:21.975Z,20.20
2022-11-27T02:52:52.908Z,17.73
2022-11-27T02:55:27.341Z,18.35
2022-11-27T02:57:57.947Z,18.33
2022-11-27T03:00:27.639Z,18.00
2022-11-27T03:02:59.600Z,19.42
2022-11-27T03:05:31.728Z,18.58
2022-11-27T03:08:06.103Z,19.05
2022-11-27T03:10:41.114Z,17.65
2022-11-27T03:13:09.382Z,18.95
2022-11-27T03:15:46.588Z,19.08
2022-11-27T03:18:25.881Z,19.90
2022-11-27T03:21:05.830Z,18.13
2022-11-27T03:23:33.889Z,18.25
2022-11-27T03:26:02.105Z,18.05
2022-11-27T03:28:32.667Z,18.75
2022-11-27T03:31:02.607Z,22.73
2022-11-27T03:33:30.852Z,19.70
2022-11-27T03:35:59.243Z,20.33
2022-11-27T03:38:27.437Z,19.23
2022-11-27T03:41:04.427Z,20.20
2022-11-27T03:43:39.725Z,17.77
2022-11-27T03:46:13.484Z,17.88
2022-11-27T03:48:49.820Z,19.42
2022-11-27T03:51:25.672Z,26.40
2022-11-27T03:54:00.425Z,19.60
2022-11-27T03:56:38.666Z,21.90
2022-11-27T03:59:11.475Z,23.23
2022-11-27T04:01:41.676Z,18.60
2022-11-27T04:06:38.356Z,19.88
2022-11-27T04:09:09.039Z,23.23
2022-11-27T04:11:37.345Z,17.90
2022-11-27T04:14:05.886Z,19.55
2022-11-27T04:16:34.268Z,21.23
2022-11-27T04:19:04.237Z,19.85
2022-11-27T04:21:32.442Z,23.17
2022-11-27T04:24:00.370Z,22.63
2022-11-27T04:26:28.368Z,19.77
2022-11-27T04:28:56.322Z,20.58
2022-11-27T04:31:24.722Z,20.08
2022-11-27T04:33:52.865Z,19.58
2022-11-27T04:36:22.537Z,21.58
2022-11-27T04:38:50.678Z,20.73
2022-11-27T04:41:18.647Z,24.10
2022-11-27T04:43:46.710Z,23.40
2022-11-27T04:46:15.053Z,22.92
2022-11-27T04:48:42.979Z,21.05
2022-11-27T04:51:11.029Z,19.73
2022-11-27T04:53:43.643Z,19.75
2022-11-27T04:56:11.878Z,18.80
2022-11-27T04:58:39.758Z,20.92
2022-11-27T05:01:10.068Z,19.48
2022-11-27T05:03:38.980Z,18.80
2022-11-27T05:06:08.090Z,20.42
2022-11-27T05:08:36.316Z,22.50
2022-11-27T05:11:08.450Z,17.52
2022-11-27T05:13:36.464Z,18.77
2022-11-27T05:16:05.217Z,17.35
2022-11-27T05:18:33.793Z,19.27
2022-11-27T05:21:03.691Z,18.52
2022-11-27T05:23:32.732Z,18.23
2022-11-27T05:26:01.301Z,19.48
2022-11-27T05:28:30.765Z,18.77
2022-11-27T05:30:59.619Z,24.35
2022-11-27T05:33:27.666Z,18.67
2022-11-27T05:35:55.871Z,19.10
2022-11-27T05:38:23.954Z,19.52
2022-11-27T05:40:51.886Z,18.83
2022-11-27T05:43:20.028Z,21.00
2022-11-27T05:45:49.474Z,19.70
2022-11-27T05:48:17.381Z,16.23
2022-11-27T05:50:45.656Z,17.63
2022-11-27T05:53:15.484Z,17.08
2022-11-27T05:55:43.803Z,18.08
2022-11-27T05:58:11.770Z,18.42
2022-11-27T06:00:39.841Z,18.73
2022-11-27T06:03:09.319Z,19.75
2022-11-27T06:05:40.311Z,23.08
2022-11-27T06:08:08.631Z,19.15
2022-11-27T06:10:36.712Z,17.88
2022-11-27T06:13:04.750Z,19.88
2022-11-27T06:15:32.760Z,16.77
2022-11-27T06:18:00.998Z,18.60
2022-11-27T06:20:30.572Z,17.80
2022-11-27T06:23:01.371Z,16.75
2022-11-27T06:25:29.588Z,16.98
2022-11-27T06:27:57.702Z,19.30
2022-11-27T06:30:25.617Z,15.82
2022-11-27T06:32:53.626Z,17.45
2022-11-27T06:35:21.718Z,17.42
2022-11-27T06:37:51.188Z,17.92
2022-11-27T06:40:19.417Z,21.67
2022-11-27T06:42:47.406Z,18.08
2022-11-27T06:45:15.468Z,20.00
2022-11-27T06:47:43.449Z,18.25
2022-11-27T06:50:11.778Z,18.48
2022-11-27T06:52:40.816Z,19.15
2022-11-27T06:55:10.736Z,25.17
2022-11-27T06:57:38.700Z,28.65
2022-11-27T07:00:08.316Z,22.38
2022-11-27T07:02:36.419Z,22.65
2022-11-27T07:05:04.854Z,23.70
2022-11-27T07:07:32.918Z,20.15
2022-11-27T07:10:01.133Z,23.50
2022-11-27T07:12:30.631Z,20.48
2022-11-27T07:15:02.875Z,19.35
2022-11-27T07:17:32.056Z,19.63
2022-11-27T07:20:00.231Z,18.30
2022-11-27T07:22:28.196Z,17.63
2022-11-27T07:24:56.406Z,18.85
2022-11-27T07:27:24.576Z,20.30
2022-11-27T07:29:54.492Z,16.83
2022-11-27T07:32:22.837Z,18.13
2022-11-27T07:34:50.888Z,20.15
2022-11-27T07:37:19.142Z,17.35
2022-11-27T07:40:01.832Z,16.55
2022-11-27T07:42:38.026Z,19.13
2022-11-27T07:45:09.010Z,17.92
2022-11-27T07:47:37.192Z,17.50
2022-11-27T07:50:07.714Z,18.25
2022-11-27T07:52:41.159Z,17.75
2022-11-27T07:55:10.934Z,18.92
2022-11-27T07:57:39.025Z,20.70
2022-11-27T08:00:10.307Z,18.08
2022-11-27T08:02:38.458Z,18.38
2022-11-27T08:05:12.328Z,17.08
2022-11-27T08:07:41.232Z,17.20
2022-11-27T08:10:10.445Z,15.63
2022-11-27T08:12:38.449Z,15.52
2022-11-27T08:15:09.206Z,15.50
2022-11-27T08:17:37.524Z,16.55
2022-11-27T08:20:07.210Z,19.85
2022-11-27T08:22:35.320Z,16.33
2022-11-27T08:25:03.603Z,16.05
2022-11-27T08:27:32.738Z,16.83
2022-11-27T08:30:00.799Z,17.58
2022-11-27T08:32:30.366Z,19.58
2022-11-27T08:34:58.552Z,17.80
2022-11-27T08:37:26.774Z,16.92
2022-11-27T08:39:54.839Z,17.08
2022-11-27T08:42:25.207Z,18.73
2022-11-27T08:44:53.657Z,19.17
2022-11-27T08:47:21.971Z,17.95
2022-11-27T08:49:51.907Z,18.30
2022-11-27T08:52:20.661Z,20.35
2022-11-27T08:54:51.978Z,20.50
2022-11-27T08:57:24.633Z,19.67
2022-11-27T08:59:52.730Z,18.02
2022-11-27T09:02:21.269Z,16.65
2022-11-27T09:04:51.734Z,19.27
2022-11-27T09:07:21.067Z,17.25
2022-11-27T09:09:49.569Z,19.27
2022-11-27T09:12:18.898Z,16.23
2022-11-27T09:14:47.109Z,18.43
2022-11-27T09:17:15.521Z,16.10
2022-11-27T09:19:43.856Z,14.98
2022-11-27T09:22:14.879Z,14.65
2022-11-27T09:24:44.907Z,17.85
2022-11-27T09:27:13.621Z,15.25
2022-11-27T09:29:42.156Z,15.32
2022-11-27T09:32:10.352Z,15.02
2022-11-27T09:34:40.889Z,16.33
2022-11-27T09:37:10.222Z,14.38
2022-11-27T09:39:38.553Z,15.15
2022-11-27T09:42:09.792Z,15.30
2022-11-27T09:44:46.617Z,15.07
2022-11-27T09:47:22.379Z,16.83
2022-11-27T09:49:54.299Z,15.55
2022-11-27T09:52:27.044Z,14.10
2022-11-27T09:55:01.614Z,12.65
2022-11-27T09:57:37.593Z,13.55
2022-11-27T10:00:12.348Z,13.93
2022-11-27T10:02:43.207Z,13.55
2022-11-27T10:05:18.370Z,15.45
2022-11-27T10:08:10.124Z,13.52
2022-11-27T10:10:46.789Z,13.55
2022-11-27T10:13:39.114Z,14.10
2022-11-27T10:16:12.997Z,11.80
2022-11-27T10:18:46.677Z,13.30
2022-11-27T10:21:20.305Z,12.85
2022-11-27T10:23:57.557Z,12.50
2022-11-27T10:26:33.382Z,15.60
2022-11-27T10:29:11.026Z,14.30
2022-11-27T10:31:46.715Z,16.30
2022-11-27T10:34:27.342Z,12.07
2022-11-27T10:36:59.086Z,12.73
2022-11-27T10:39:33.544Z,11.88
2022-11-27T10:42:10.416Z,15.20
2022-11-27T10:44:48.122Z,13.65
2022-11-27T10:47:17.638Z,14.85
2022-11-27T10:49:48.644Z,12.97
2022-11-27T10:52:18.761Z,12.82
2022-11-27T10:54:56.443Z,12.20
2022-11-27T10:57:45.185Z,11.05
2022-11-27T11:00:20.468Z,14.43
2022-11-27T11:02:48.699Z,12.95
2022-11-27T11:05:50.609Z,11.57
2022-11-27T11:08:20.162Z,8.82
2022-11-27T11:10:53.662Z,16.25
2022-11-27T11:13:23.905Z,13.85
2022-11-27T11:16:00.563Z,11.57
2022-11-27T11:18:31.321Z,9.80
2022-11-27T11:21:02.998Z,10.43
2022-11-27T11:23:35.444Z,14.18
2022-11-27T11:26:08.873Z,10.68
2022-11-27T11:28:51.519Z,10.10
2022-11-27T11:31:24.863Z,11.65
2022-11-27T11:33:59.205Z,12.00
2022-11-27T11:36:27.886Z,13.13
2022-11-27T11:38:58.081Z,10.30
2022-11-27T11:41:36.947Z,10.88
2022-11-27T11:44:05.036Z,12.32
2022-11-27T11:46:36.838Z,11.77
2022-11-27T11:49:08.441Z,9.52
2022-11-27T11:51:50.493Z,9.23
2022-11-27T11:54:31.954Z,9.13
2022-11-27T11:57:03.652Z,8.95
2022-11-27T11:59:45.260Z,8.20
2022-11-27T12:02:35.850Z,9.68
2022-11-27T12:08:15.493Z,10.57
2022-11-27T12:10:54.602Z,7.38
2022-11-27T12:13:47.378Z,9.52
2022-11-27T12:16:25.539Z,6.82
2022-11-27T12:19:08.982Z,8.65
2022-11-27T12:21:47.766Z,9.38
2022-11-27T12:24:31.393Z,9.10
2022-11-27T12:27:15.395Z,9.88
2022-11-27T12:30:06.956Z,10.45
2022-11-27T12:33:06.654Z,10.75
2022-11-27T12:35:44.905Z,9.88
2022-11-27T12:38:38.265Z,6.53
2022-11-27T12:41:38.233Z,8.65
2022-11-27T12:44:15.038Z,7.18
2022-11-27T12:46:51.806Z,8.32
2022-11-27T12:49:26.694Z,7.28
2022-11-27T12:52:02.328Z,5.60
2022-11-27T12:54:33.228Z,6.88
2022-11-27T12:57:07.426Z,8.52
2022-11-27T12:59:43.732Z,5.28
2022-11-27T13:02:25.188Z,6.30
2022-11-27T13:04:58.804Z,6.30
2022-11-27T13:07:38.596Z,6.40
2022-11-27T13:10:14.487Z,6.78
2022-11-27T13:12:49.506Z,7.82
2022-11-27T13:15:24.978Z,8.02
2022-11-27T13:17:59.963Z,6.97
2022-11-27T13:20:42.511Z,5.85
2022-11-27T13:23:13.067Z,6.05
2022-11-27T13:25:46.405Z,6.70
2022-11-27T13:28:26.056Z,7.60
2022-11-27T13:30:59.485Z,7.45
2022-11-27T13:33:36.868Z,6.90
2022-11-27T13:36:09.039Z,7.72
2022-11-27T13:38:42.071Z,9.65
2022-11-27T13:41:21.904Z,5.47
2022-11-27T13:43:51.052Z,7.18
2022-11-27T13:46:24.826Z,12.43
2022-11-27T13:48:57.111Z,7.80
2022-11-27T13:51:28.359Z,6.35
2022-11-27T13:54:11.156Z,9.57
2022-11-27T13:56:40.748Z,8.07
2022-11-27T13:59:20.679Z,6.80
2022-11-27T14:01:58.460Z,7.57
2022-11-27T14:04:26.705Z,7.40
2022-11-27T14:06:59.127Z,8.20
2022-11-27T14:09:37.887Z,35.85
2022-11-27T14:12:17.624Z,8.40
2022-11-27T14:14:58.205Z,7.45
2022-11-27T14:17:29.072Z,6.15
2022-11-27T14:20:04.538Z,7.70
2022-11-27T14:22:53.959Z,6.05
2022-11-27T14:25:29.159Z,8.35
2022-11-27T14:28:05.446Z,9.48
2022-11-27T14:30:36.284Z,5.75
2022-11-27T14:33:05.146Z,5.30
2022-11-27T14:35:33.163Z,7.90
2022-11-27T14:38:12.180Z,5.35
2022-11-27T14:40:42.112Z,6.22
2022-11-27T14:43:12.599Z,5.72
2022-11-27T14:45:45.648Z,6.82
2022-11-27T14:48:20.538Z,5.53
2022-11-27T14:50:49.821Z,6.40
2022-11-27T14:53:19.504Z,6.13
2022-11-27T14:55:49.735Z,4.60
2022-11-27T15:00:53.921Z,4.78
2022-11-27T15:03:21.998Z,4.97
2022-11-27T15:05:57.258Z,6.45
2022-11-27T15:08:25.935Z,8.65
2022-11-27T15:10:58.031Z,6.20
2022-11-27T15:13:28.622Z,7.97
2022-11-27T15:16:04.239Z,12.88
2022-11-27T15:18:35.159Z,6.38
2022-11-27T15:21:10.175Z,9.93
2022-11-27T15:23:38.665Z,8.75
2022-11-27T15:26:32.235Z,5.28
2022-11-27T15:29:00.511Z,5.35
2022-11-27T15:31:33.765Z,3.95
2022-11-27T15:34:04.499Z,8.90
2022-11-27T15:36:39.139Z,8.38
2022-11-27T15:39:19.135Z,9.15
2022-11-27T15:41:59.553Z,9.02
2022-11-27T15:44:30.093Z,5.00
2022-11-27T15:47:00.808Z,8.35
2022-11-27T15:49:29.453Z,4.53
2022-11-27T15:51:58.435Z,6.68
2022-11-27T15:54:26.750Z,5.32
2022-11-27T15:56:56.186Z,6.50
2022-11-27T15:59:24.843Z,4.70
2022-11-27T16:01:52.817Z,6.57
2022-11-27T16:04:20.861Z,5.70
2022-11-27T16:06:48.787Z,6.53
2022-11-27T16:09:17.083Z,4.43
2022-11-27T16:11:45.332Z,5.22
2022-11-27T16:14:14.751Z,4.53
2022-11-27T16:16:42.924Z,6.50
2022-11-27T16:19:12.240Z,6.55
2022-11-27T16:21:40.315Z,6.75
2022-11-27T16:24:11.901Z,7.38
2022-11-27T16:26:40.209Z,4.88
2022-11-27T16:29:10.364Z,5.07
2022-11-27T16:31:41.591Z,7.65
2022-11-27T16:34:09.665Z,8.40
2022-11-27T16:36:41.876Z,3.88
2022-11-27T16:39:10.145Z,3.95
2022-11-27T16:41:38.410Z,6.32
2022-11-27T16:44:11.439Z,4.78
2022-11-27T16:46:41.720Z,5.97
2022-11-27T16:51:39.387Z,4.93
2022-11-27T16:54:11.186Z,8.32
2022-11-27T16:56:49.835Z,15.82
2022-11-27T16:59:18.086Z,4.75
2022-11-27T17:01:46.786Z,4.65
2022-11-27T17:04:19.549Z,3.90
2022-11-27T17:06:49.278Z,4.05
2022-11-27T17:09:17.570Z,4.90
2022-11-27T17:11:48.656Z,4.43
2022-11-27T17:14:19.588Z,3.67
2022-11-27T17:16:47.636Z,6.43
2022-11-27T17:19:17.769Z,3.95
2022-11-27T17:21:46.618Z,3.65
2022-11-27T17:24:16.480Z,4.63
2022-11-27T17:26:49.359Z,6.85
2022-11-27T17:29:21.000Z,5.05
2022-11-27T17:31:51.721Z,5.72
2022-11-27T17:34:20.661Z,4.07
2022-11-27T17:36:53.432Z,5.70
2022-11-27T17:39:22.021Z,4.82
2022-11-27T17:41:50.171Z,5.70
2022-11-27T17:44:20.257Z,3.70
2022-11-27T17:46:50.652Z,7.32
2022-11-27T17:49:22.124Z,6.75
2022-11-27T17:51:51.191Z,4.50
2022-11-27T17:54:20.452Z,4.70
2022-11-27T17:56:51.339Z,6.00
2022-11-27T17:59:21.862Z,8.95
2022-11-27T18:01:52.887Z,9.30
2022-11-27T18:04:21.627Z,5.15
2022-11-27T18:06:49.808Z,5.43
2022-11-27T18:09:17.952Z,16.77
2022-11-27T18:11:46.171Z,18.20
2022-11-27T18:14:14.759Z,7.15
2022-11-27T18:16:44.735Z,14.95
2022-11-27T18:19:13.391Z,7.70
2022-11-27T18:21:41.677Z,5.72
2022-11-27T18:24:25.699Z,5.10
2022-11-27T18:27:10.767Z,4.25
2022-11-27T18:29:42.663Z,3.85
2022-11-27T18:32:13.320Z,5.38
2022-11-27T18:34:42.575Z,3.50
2022-11-27T18:37:11.381Z,3.63
2022-11-27T18:39:41.571Z,5.65
2022-11-27T18:42:10.644Z,4.22
2022-11-27T18:44:44.867Z,5.60
2022-11-27T18:47:16.115Z,3.58
2022-11-27T18:49:46.151Z,4.10
2022-11-27T18:52:14.486Z,5.63
2022-11-27T18:54:44.144Z,4.57
2022-11-27T18:57:13.237Z,4.38
2022-11-27T18:59:44.805Z,4.13
2022-11-27T19:02:13.476Z,6.30
2022-11-27T19:04:44.905Z,5.40
2022-11-27T19:07:13.203Z,3.45
2022-11-27T19:09:41.547Z,4.07
2022-11-27T19:12:10.075Z,3.88
2022-11-27T19:14:38.528Z,5.50
2022-11-27T19:17:08.495Z,4.20
2022-11-27T19:22:27.003Z,5.75
2022-11-27T19:24:57.601Z,7.70
2022-11-27T19:27:26.133Z,6.93
2022-11-27T19:29:54.846Z,5.70
2022-11-27T19:32:24.164Z,4.75
2022-11-27T19:34:52.780Z,4.53
2022-11-27T19:37:33.925Z,5.18
2022-11-27T19:40:06.645Z,4.95
2022-11-27T19:42:34.657Z,5.63
2022-11-27T19:45:03.384Z,5.10
2022-11-27T19:47:31.611Z,5.78
2022-11-27T19:50:00.012Z,5.03
2022-11-27T19:52:28.827Z,5.45
2022-11-27T19:54:57.002Z,4.50
2022-11-27T19:57:26.763Z,4.40
2022-11-27T19:59:55.049Z,6.65
2022-11-27T20:02:24.896Z,5.55
2022-11-27T20:04:54.752Z,6.30
2022-11-27T20:07:22.933Z,5.30
2022-11-27T20:09:53.273Z,7.40
2022-11-27T20:12:21.432Z,4.45
2022-11-27T20:14:51.579Z,4.32
2022-11-27T20:19:48.234Z,5.85
2022-11-27T20:22:16.393Z,4.50
2022-11-27T20:25:04.462Z,5.43
2022-11-27T20:27:32.698Z,4.70
2022-11-27T20:30:02.230Z,5.10
2022-11-27T20:32:30.280Z,4.65
2022-11-27T20:34:58.731Z,4.75
2022-11-27T20:37:26.848Z,4.90
2022-11-27T20:39:55.838Z,5.72
2022-11-27T20:42:24.526Z,5.90
2022-11-27T20:47:23.498Z,5.93
2022-11-27T20:49:51.482Z,4.97
2022-11-27T20:52:19.651Z,6.10
2022-11-27T20:54:48.772Z,14.25
2022-11-27T20:57:17.054Z,7.97
2022-11-27T20:59:45.051Z,11.20
2022-11-27T21:02:14.127Z,10.85
2022-11-27T21:04:44.656Z,6.05
2022-11-27T21:07:15.087Z,5.28
2022-11-27T21:09:43.548Z,5.60
2022-11-27T21:12:13.662Z,5.80
2022-11-27T21:14:41.664Z,5.72
2022-11-27T21:17:10.289Z,5.28
2022-11-27T21:19:38.662Z,5.15
2022-11-27T21:22:08.306Z,5.57
2022-11-27T21:24:36.288Z,6.55
2022-11-27T21:27:04.269Z,5.32
2022-11-27T21:29:32.751Z,6.95
2022-11-27T21:32:00.815Z,7.03
2022-11-27T21:34:29.044Z,8.63
2022-11-27T21:36:57.222Z,12.27
2022-11-27T21:39:26.635Z,5.88
2022-11-27T21:41:56.711Z,6.57
2022-11-27T21:44:26.081Z,8.55
2022-11-27T21:46:54.485Z,6.45
2022-11-27T21:49:22.651Z,9.27
2022-11-27T21:51:52.997Z,8.93
2022-11-27T21:54:22.466Z,8.52
2022-11-27T21:56:53.344Z,6.45
2022-11-27T21:59:21.600Z,8.10
2022-11-27T22:01:49.793Z,10.20
2022-11-27T22:04:18.023Z,7.32
2022-11-27T22:06:46.297Z,6.95
2022-11-27T22:09:16.045Z,5.57
2022-11-27T22:11:44.977Z,5.78
2022-11-27T22:14:15.968Z,5.82
2022-11-27T22:16:46.713Z,5.72
2022-11-27T22:19:16.660Z,6.75
2022-11-27T22:21:45.818Z,5.30
2022-11-27T22:24:19.238Z,5.72
2022-11-27T22:26:51.211Z,6.15
2022-11-27T22:29:20.710Z,4.95
2022-11-27T22:31:49.088Z,5.22
2022-11-27T22:34:18.028Z,4.47
2022-11-27T22:36:47.263Z,4.90
2022-11-27T22:39:16.091Z,6.15
2022-11-27T22:41:45.565Z,4.80
2022-11-27T22:44:16.861Z,4.57
2022-11-27T22:49:16.695Z,6.97
2022-11-27T22:51:45.151Z,5.25
2022-11-27T22:54:17.189Z,4.70
2022-11-27T22:56:47.413Z,5.00
2022-11-27T22:59:33.981Z,7.18
2022-11-27T23:02:04.913Z,5.13
2022-11-27T23:07:01.994Z,5.50
2022-11-27T23:09:30.843Z,6.22
2022-11-27T23:11:59.236Z,7.13
2022-11-27T23:14:28.180Z,5.13
2022-11-27T23:16:56.198Z,5.25
2022-11-27T23:19:25.700Z,5.22
2022-11-27T23:21:53.640Z,5.32
2022-11-27T23:24:21.710Z,5.43
2022-11-27T23:26:50.007Z,5.13
2022-11-27T23:29:18.158Z,5.18
2022-11-27T23:31:46.278Z,5.10
2022-11-27T23:34:16.076Z,6.38
2022-11-27T23:36:45.854Z,6.45
2022-11-27T23:39:15.077Z,7.10
2022-11-27T23:41:43.542Z,6.38
2022-11-27T23:44:11.733Z,5.30
2022-11-27T23:46:39.773Z,6.78
2022-11-27T23:49:07.965Z,7.82
2022-11-27T23:51:36.033Z,7.15
2022-11-27T23:54:08.521Z,7.38
2022-11-27T23:56:37.419Z,5.47
2022-11-27T23:59:05.906Z,7.80
